Time;durP1;ratioP1;P1;durP2;ratioP2;P2;SDS_P1;SDS_P2;PMS_P1;PMS_P2;Temp;Humidity;BMP_temperature;BMP_pressure;BME280_temperature;BME280_humidity;BME280_pressure;Samples;Min_cycle;Max_cycle;Signal;HPM_P1;HPM_P2
2022/10/03 00:01:54;;;;;;;1.17;0.65;;;;;;;;;;6217664;23;20099;-94
2022/10/03 00:04:27;;;;;;;1.67;1.40;;;;;;;;;;6217304;23;20397;-96
2022/10/03 00:07:02;;;;;;;1.55;1.15;;;;;;;;;;6217328;23;20168;-95
2022/10/03 00:09:35;;;;;;;5.80;1.38;;;;;;;;;;6217268;23;20074;-94
2022/10/03 00:12:13;;;;;;;2.70;1.80;;;;;;;;;;6216889;23;20100;-95
2022/10/03 00:14:44;;;;;;;1.92;1.52;;;;;;;;;;6216770;23;20024;-96
2022/10/03 00:17:14;;;;;;;1.65;1.42;;;;;;;;;;6216876;23;20025;-95
2022/10/03 00:19:46;;;;;;;2.20;2.00;;;;;;;;;;6216764;23;20024;-94
2022/10/03 00:22:18;;;;;;;1.92;1.83;;;;;;;;;;6216865;23;20040;-95
2022/10/03 00:24:52;;;;;;;1.92;1.08;;;;;;;;;;6217220;23;20331;-95
2022/10/03 00:27:27;;;;;;;1.30;1.20;;;;;;;;;;6217401;23;20024;-95
2022/10/03 00:30:00;;;;;;;2.15;1.95;;;;;;;;;;6217172;23;20082;-94
2022/10/03 00:32:33;;;;;;;1.92;1.80;;;;;;;;;;6216820;23;20044;-95
2022/10/03 00:35:07;;;;;;;2.30;1.17;;;;;;;;;;6216549;23;20024;-95
2022/10/03 00:37:35;;;;;;;1.73;1.33;;;;;;;;;;6216593;23;20055;-94
2022/10/03 00:40:13;;;;;;;1.25;1.15;;;;;;;;;;6216812;23;20099;-95
2022/10/03 00:42:52;;;;;;;1.20;0.98;;;;;;;;;;6216619;23;20055;-94
2022/10/03 00:45:35;;;;;;;1.75;1.65;;;;;;;;;;6217275;23;20016;-95
2022/10/03 00:48:20;;;;;;;1.05;0.88;;;;;;;;;;6216879;23;20020;-95
2022/10/03 00:50:55;;;;;;;1.67;0.80;;;;;;;;;;6216585;23;20453;-96
2022/10/03 00:53:28;;;;;;;1.30;1.13;;;;;;;;;;6216843;23;20024;-94
2022/10/03 00:56:03;;;;;;;1.52;0.90;;;;;;;;;;6216800;23;20386;-94
2022/10/03 00:58:34;;;;;;;1.88;0.95;;;;;;;;;;6216466;23;20028;-95
2022/10/03 01:01:19;;;;;;;1.08;0.95;;;;;;;;;;6216811;23;20024;-95
2022/10/03 01:03:46;;;;;;;1.88;1.40;;;;;;;;;;6216983;23;20021;-94
2022/10/03 01:06:26;;;;;;;1.70;1.52;;;;;;;;;;6216263;23;20028;-94
2022/10/03 01:09:06;;;;;;;1.55;1.20;;;;;;;;;;6216246;23;20024;-94
2022/10/03 01:11:40;;;;;;;2.40;2.20;;;;;;;;;;6216704;23;20028;-95
2022/10/03 01:14:16;;;;;;;1.33;1.05;;;;;;;;;;6216834;23;20021;-95
2022/10/03 01:16:51;;;;;;;4.82;1.08;;;;;;;;;;6218080;23;20099;-96
2022/10/03 01:19:27;;;;;;;1.88;1.35;;;;;;;;;;6216802;23;20017;-95
2022/10/03 01:22:03;;;;;;;2.40;1.23;;;;;;;;;;6216656;23;20520;-95
2022/10/03 01:24:47;;;;;;;1.50;1.00;;;;;;;;;;6216086;23;20075;-94
2022/10/03 01:27:15;;;;;;;1.27;0.93;;;;;;;;;;6216017;23;20025;-95
2022/10/03 01:32:35;;;;;;;1.50;1.08;;;;;;;;;;6216140;23;20075;-95
2022/10/03 01:35:09;;;;;;;0.75;0.68;;;;;;;;;;6216443;23;20398;-95
2022/10/03 01:37:40;;;;;;;1.45;1.25;;;;;;;;;;6216454;23;20081;-95
2022/10/03 01:40:07;;;;;;;;;;;;;;;;;;6216533;23;20528;-95
2022/10/03 01:42:39;;;;;;;1.27;1.17;;;;;;;;;;6216828;23;19986;-95
2022/10/03 01:45:15;;;;;;;2.78;1.85;;;;;;;;;;6218694;23;20068;-95
2022/10/03 01:47:50;;;;;;;2.78;2.20;;;;;;;;;;6219732;23;20526;-96
2022/10/03 01:50:22;;;;;;;2.08;1.50;;;;;;;;;;6219714;23;20020;-96
2022/10/03 01:52:53;;;;;;;1.67;1.35;;;;;;;;;;6222353;23;20032;-95
2022/10/03 01:55:23;;;;;;;1.30;1.13;;;;;;;;;;6223961;23;20025;-95
2022/10/03 01:57:53;;;;;;;2.50;2.30;;;;;;;;;;6219519;23;20721;-96
2022/10/03 02:00:23;;;;;;;1.48;0.70;;;;;;;;;;6224174;23;20074;-95
2022/10/03 02:02:52;;;;;;;2.20;1.73;;;;;;;;;;6224194;23;20025;-96
2022/10/03 02:05:22;;;;;;;2.10;1.67;;;;;;;;;;6225042;23;20047;-96
2022/10/03 02:07:53;;;;;;;2.35;2.00;;;;;;;;;;6218409;23;20024;-95
2022/10/03 02:10:24;;;;;;;1.33;1.15;;;;;;;;;;6217759;23;20055;-96
2022/10/03 02:12:56;;;;;;;3.40;3.13;;;;;;;;;;6219252;23;20066;-96
2022/10/03 02:15:28;;;;;;;2.40;1.60;;;;;;;;;;6222560;23;20051;-96
2022/10/03 02:17:56;;;;;;;2.92;1.88;;;;;;;;;;6219347;23;20059;-96
2022/10/03 02:20:25;;;;;;;1.48;1.35;;;;;;;;;;6222874;23;20016;-96
2022/10/03 02:22:53;;;;;;;2.08;1.10;;;;;;;;;;6225543;23;20028;-96
2022/10/03 02:25:29;;;;;;;3.42;1.48;;;;;;;;;;6229619;23;20091;-96
2022/10/03 02:28:10;;;;;;;2.33;2.13;;;;;;;;;;6236607;23;20023;-96
2022/10/03 02:30:45;;;;;;;1.83;1.20;;;;;;;;;;6233275;23;20458;-95
2022/10/03 02:33:23;;;;;;;1.55;1.30;;;;;;;;;;6233568;23;20060;-96
2022/10/03 02:36:00;;;;;;;1.55;1.33;;;;;;;;;;6232129;23;20027;-96
2022/10/03 02:38:33;;;;;;;2.10;1.63;;;;;;;;;;6238102;23;20029;-96
2022/10/03 02:41:24;;;;;;;2.13;1.92;;;;;;;;;;6235911;23;20020;-96
2022/10/03 02:44:06;;;;;;;1.55;1.10;;;;;;;;;;6186527;23;20079;-94
2022/10/03 02:46:58;;;;;;;2.90;2.25;;;;;;;;;;6216364;23;20123;-96
2022/10/03 02:49:37;;;;;;;1.65;0.90;;;;;;;;;;6216374;23;20016;-96
2022/10/03 02:52:22;;;;;;;2.30;1.67;;;;;;;;;;6218223;23;20056;-94
2022/10/03 02:55:15;;;;;;;2.00;1.25;;;;;;;;;;6215963;23;20541;-94
2022/10/03 02:58:03;;;;;;;2.38;2.10;;;;;;;;;;6216972;23;20532;-96
2022/10/03 03:00:34;;;;;;;3.58;2.38;;;;;;;;;;6180889;23;20020;-96
2022/10/03 03:03:12;;;;;;;2.63;2.08;;;;;;;;;;6223544;23;20025;-95
2022/10/03 03:05:56;;;;;;;3.88;2.40;;;;;;;;;;6223403;23;20024;-96
2022/10/03 03:08:42;;;;;;;2.22;1.40;;;;;;;;;;6158161;23;20063;-95
2022/10/03 03:11:24;;;;;;;2.63;2.30;;;;;;;;;;6217636;23;20021;-94
2022/10/03 03:14:07;;;;;;;2.50;2.13;;;;;;;;;;6169292;23;20055;-96
2022/10/03 03:16:42;;;;;;;1.98;1.77;;;;;;;;;;6154790;23;20025;-96
2022/10/03 03:19:24;;;;;;;3.70;2.70;;;;;;;;;;6217779;23;20029;-96
2022/10/03 03:21:53;;;;;;;3.60;3.40;;;;;;;;;;6219581;23;20075;-96
2022/10/03 03:24:34;;;;;;;3.28;2.53;;;;;;;;;;6218807;23;20020;-96
2022/10/03 03:27:05;;;;;;;3.08;2.67;;;;;;;;;;6218661;23;20024;-96
2022/10/03 03:29:38;;;;;;;2.10;1.75;;;;;;;;;;6220850;23;20021;-96
2022/10/03 03:32:10;;;;;;;2.47;2.15;;;;;;;;;;6219023;23;20075;-96
2022/10/03 03:34:42;;;;;;;2.15;1.58;;;;;;;;;;6218200;23;20071;-96
2022/10/03 03:37:11;;;;;;;2.88;1.98;;;;;;;;;;6220915;23;20100;-94
2022/10/03 03:40:01;;;;;;;2.78;2.53;;;;;;;;;;6216674;23;20466;-95
2022/10/03 03:42:41;;;;;;;1.83;1.50;;;;;;;;;;6187217;23;20025;-95
2022/10/03 03:45:13;;;;;;;2.53;2.33;;;;;;;;;;6217060;23;20075;-94
2022/10/03 03:47:58;;;;;;;3.22;1.90;;;;;;;;;;6217628;23;20087;-94
2022/10/03 03:50:33;;;;;;;2.83;1.98;;;;;;;;;;6217451;23;20382;-94
2022/10/03 03:53:14;;;;;;;2.78;2.05;;;;;;;;;;6217796;23;20402;-96
2022/10/03 03:55:56;;;;;;;2.60;2.10;;;;;;;;;;6213293;23;20024;-95
2022/10/03 03:58:32;;;;;;;3.90;2.67;;;;;;;;;;6217144;23;20103;-96
2022/10/03 04:01:06;;;;;;;2.53;2.08;;;;;;;;;;6217464;23;20369;-94
2022/10/03 04:03:42;;;;;;;1.90;1.63;;;;;;;;;;6217627;23;20401;-95
2022/10/03 04:06:21;;;;;;;3.03;2.15;;;;;;;;;;6217542;23;20051;-96
2022/10/03 04:09:00;;;;;;;3.13;2.45;;;;;;;;;;6217636;23;20016;-95
2022/10/03 04:11:33;;;;;;;3.75;2.30;;;;;;;;;;6217676;23;20095;-95
2022/10/03 04:14:23;;;;;;;6.60;3.17;;;;;;;;;;6217277;23;20025;-94
2022/10/03 04:19:50;;;;;;;2.67;2.47;;;;;;;;;;6217033;23;20467;-96
2022/10/03 04:22:37;;;;;;;2.33;1.65;;;;;;;;;;6217138;23;20336;-96
2022/10/03 04:25:25;;;;;;;7.35;2.40;;;;;;;;;;6166973;23;20024;-96
2022/10/03 04:28:06;;;;;;;6.28;1.98;;;;;;;;;;6209215;23;20099;-96
2022/10/03 04:30:37;;;;;;;3.47;2.35;;;;;;;;;;6219363;23;20021;-96
2022/10/03 04:33:12;;;;;;;2.58;2.08;;;;;;;;;;6217845;23;20304;-96
2022/10/03 04:35:49;;;;;;;2.47;2.28;;;;;;;;;;6223346;23;20079;-96
2022/10/03 04:38:20;;;;;;;4.22;2.38;;;;;;;;;;6224264;23;20021;-96
2022/10/03 04:40:46;;;;;;;;;;;;;;;;;;6221338;23;20489;-95
2022/10/03 04:43:18;;;;;;;2.85;2.45;;;;;;;;;;6241574;23;19938;-95
2022/10/03 04:45:54;;;;;;;6.68;2.85;;;;;;;;;;6215489;23;20460;-96
2022/10/03 04:48:37;;;;;;;2.90;2.58;;;;;;;;;;6240695;23;20080;-96
2022/10/03 04:51:08;;;;;;;4.00;2.05;;;;;;;;;;6243385;23;20012;-96
2022/10/03 04:53:44;;;;;;;2.42;1.58;;;;;;;;;;6232148;23;20095;-96
2022/10/03 04:56:23;;;;;;;3.35;1.98;;;;;;;;;;6223367;23;20083;-96
2022/10/03 04:59:05;;;;;;;2.25;1.67;;;;;;;;;;6229801;23;20381;-96
2022/10/03 05:01:35;;;;;;;2.25;1.70;;;;;;;;;;6211519;23;20028;-96
2022/10/03 05:04:09;;;;;;;3.75;2.47;;;;;;;;;;6240583;23;20028;-96
2022/10/03 05:06:42;;;;;;;4.93;2.78;;;;;;;;;;6238725;23;20025;-96
2022/10/03 05:09:16;;;;;;;2.92;2.55;;;;;;;;;;6223785;23;20028;-95
2022/10/03 05:11:48;;;;;;;4.43;2.40;;;;;;;;;;6214585;23;20070;-95
2022/10/03 05:14:21;;;;;;;4.88;2.72;;;;;;;;;;6216397;23;20099;-95
2022/10/03 05:16:52;;;;;;;5.07;3.08;;;;;;;;;;6216384;23;20020;-95
2022/10/03 05:19:36;;;;;;;3.67;2.53;;;;;;;;;;6216489;23;20024;-96
2022/10/03 05:22:08;;;;;;;3.45;2.65;;;;;;;;;;6218122;23;20532;-96
2022/10/03 05:24:38;;;;;;;3.33;2.55;;;;;;;;;;6218330;23;20021;-93
2022/10/03 05:27:11;;;;;;;3.72;3.40;;;;;;;;;;6215947;23;20020;-93
2022/10/03 05:29:43;;;;;;;3.53;3.22;;;;;;;;;;6215730;23;20458;-93
2022/10/03 05:32:17;;;;;;;4.30;3.17;;;;;;;;;;6217087;23;20095;-95
2022/10/03 05:34:52;;;;;;;3.80;2.70;;;;;;;;;;6212713;23;20099;-93
2022/10/03 05:37:24;;;;;;;3.45;2.90;;;;;;;;;;6215534;23;20078;-92
2022/10/03 05:39:53;;;;;;;4.65;3.42;;;;;;;;;;6215631;23;20108;-93
2022/10/03 05:42:30;;;;;;;4.15;2.50;;;;;;;;;;6215581;23;20095;-93
2022/10/03 05:45:01;;;;;;;4.13;3.72;;;;;;;;;;6215208;23;20024;-92
2022/10/03 05:47:48;;;;;;;3.65;3.03;;;;;;;;;;6215747;23;20025;-93
2022/10/03 05:50:28;;;;;;;8.80;3.55;;;;;;;;;;6215019;23;20021;-93
2022/10/03 05:53:01;;;;;;;3.38;2.78;;;;;;;;;;6215790;23;20131;-93
2022/10/03 05:55:36;;;;;;;6.00;3.33;;;;;;;;;;6215318;23;20060;-93
2022/10/03 05:58:13;;;;;;;4.00;3.38;;;;;;;;;;6215640;23;20094;-93
2022/10/03 06:00:40;;;;;;;;;;;;;;;;;;6217016;23;20032;-92
2022/10/03 06:03:26;;;;;;;3.60;3.30;;;;;;;;;;6215218;23;19920;-93
2022/10/03 06:06:10;;;;;;;4.70;2.80;;;;;;;;;;6215404;23;20028;-92
2022/10/03 06:08:57;;;;;;;3.20;2.65;;;;;;;;;;6195571;23;20021;-93
2022/10/03 06:11:51;;;;;;;3.67;3.22;;;;;;;;;;6204651;23;20021;-93
2022/10/03 06:14:37;;;;;;;5.00;3.45;;;;;;;;;;6093774;23;20078;-93
2022/10/03 06:17:27;;;;;;;6.47;3.90;;;;;;;;;;6094033;23;20085;-92
2022/10/03 06:20:00;;;;;;;3.75;3.17;;;;;;;;;;6036869;23;20023;-93
2022/10/03 06:22:48;;;;;;;3.92;3.40;;;;;;;;;;6037012;23;20162;-92
2022/10/03 06:25:33;;;;;;;4.50;3.60;;;;;;;;;;6036996;23;20078;-92
2022/10/03 06:28:18;;;;;;;6.57;3.75;;;;;;;;;;6037770;23;20024;-92
2022/10/03 06:30:52;;;;;;;6.93;3.55;;;;;;;;;;6036454;23;20079;-92
2022/10/03 06:33:37;;;;;;;4.55;3.80;;;;;;;;;;6036381;23;20110;-93
2022/10/03 06:36:18;;;;;;;6.35;3.90;;;;;;;;;;6037172;23;20074;-93
2022/10/03 06:39:11;;;;;;;4.15;3.63;;;;;;;;;;6033252;23;20075;-92
2022/10/03 06:41:57;;;;;;;9.88;3.88;;;;;;;;;;5952086;24;20047;-94
2022/10/03 06:44:30;;;;;;;4.80;3.60;;;;;;;;;;5952019;24;20424;-94
2022/10/03 06:47:14;;;;;;;4.85;2.90;;;;;;;;;;5952702;24;20423;-93
2022/10/03 06:52:42;;;;;;;3.22;2.80;;;;;;;;;;6008856;23;20365;-93
2022/10/03 06:55:40;;;;;;;5.40;4.88;;;;;;;;;;6009119;23;20080;-94
2022/10/03 06:58:24;;;;;;;11.35;3.92;;;;;;;;;;6125197;23;20457;-94
2022/10/03 07:00:55;;;;;;;4.20;2.47;;;;;;;;;;6123887;23;20396;-93
2022/10/03 07:03:21;;;;;;;;;;;;;;;;;;6125746;23;20108;-95
2022/10/03 07:06:08;;;;;;;5.18;2.38;;;;;;;;;;6136694;23;20350;-93
2022/10/03 07:08:44;;;;;;;5.30;3.42;;;;;;;;;;6119358;23;20022;-94
2022/10/03 07:11:21;;;;;;;4.75;3.67;;;;;;;;;;6124154;23;20025;-95
2022/10/03 07:14:09;;;;;;;5.82;3.65;;;;;;;;;;6123806;23;20085;-94
2022/10/03 07:16:49;;;;;;;3.90;3.53;;;;;;;;;;6131704;23;20025;-94
2022/10/03 07:19:25;;;;;;;3.97;2.97;;;;;;;;;;6185507;23;20029;-95
2022/10/03 07:22:10;;;;;;;6.30;4.13;;;;;;;;;;6185337;23;20048;-95
2022/10/03 07:24:53;;;;;;;3.38;2.65;;;;;;;;;;6185003;23;20072;-93
2022/10/03 07:27:23;;;;;;;4.47;2.58;;;;;;;;;;6185234;23;20025;-93
2022/10/03 07:30:05;;;;;;;4.47;2.95;;;;;;;;;;6185389;23;20020;-94
2022/10/03 07:32:51;;;;;;;5.05;3.95;;;;;;;;;;6185111;23;20025;-94
2022/10/03 07:41:20;;;;;;;5.57;2.10;;;;;;;;;;6184989;23;20410;-94
2022/10/03 07:43:55;;;;;;;3.95;2.90;;;;;;;;;;6193483;23;20458;-95
2022/10/03 07:46:40;;;;;;;3.58;3.13;;;;;;;;;;6217074;23;20075;-94
2022/10/03 07:49:18;;;;;;;3.50;2.67;;;;;;;;;;6215892;23;20024;-92
2022/10/03 07:51:55;;;;;;;3.72;3.08;;;;;;;;;;6216799;23;20454;-94
2022/10/03 07:54:23;;;;;;;;;;;;;;;;;;6217526;23;20024;-94
2022/10/03 07:56:59;;;;;;;3.42;3.10;;;;;;;;;;6217224;23;19969;-93
2022/10/03 07:59:51;;;;;;;3.17;2.85;;;;;;;;;;6216727;23;20454;-93
2022/10/03 08:02:28;;;;;;;4.10;2.90;;;;;;;;;;6187934;23;20477;-93
2022/10/03 08:05:16;;;;;;;5.20;3.33;;;;;;;;;;6216873;23;20024;-93
2022/10/03 08:07:51;;;;;;;3.67;2.95;;;;;;;;;;6207394;23;20024;-94
2022/10/03 08:10:23;;;;;;;3.22;2.58;;;;;;;;;;6216954;23;20025;-93
2022/10/03 08:12:58;;;;;;;3.40;3.00;;;;;;;;;;6216998;23;20072;-93
2022/10/03 08:15:30;;;;;;;4.30;3.20;;;;;;;;;;6216793;23;20025;-92
2022/10/03 08:18:27;;;;;;;4.40;3.03;;;;;;;;;;6216529;23;20025;-94
2022/10/03 08:20:55;;;;;;;5.90;3.38;;;;;;;;;;6216847;23;20090;-93
2022/10/03 08:23:39;;;;;;;4.93;2.88;;;;;;;;;;6216260;23;20107;-92
2022/10/03 08:26:12;;;;;;;2.80;2.47;;;;;;;;;;6215525;23;20094;-93
2022/10/03 08:28:46;;;;;;;3.92;3.53;;;;;;;;;;6216843;23;20025;-93
2022/10/03 08:31:24;;;;;;;4.75;3.17;;;;;;;;;;6216325;23;20382;-94
2022/10/03 08:34:09;;;;;;;3.40;3.10;;;;;;;;;;6216379;23;20024;-94
2022/10/03 08:36:56;;;;;;;4.20;3.05;;;;;;;;;;6156470;23;20481;-94
2022/10/03 08:39:34;;;;;;;3.70;2.55;;;;;;;;;;6216056;23;20426;-93
2022/10/03 08:42:19;;;;;;;4.03;2.58;;;;;;;;;;6216188;23;20017;-93
2022/10/03 08:45:07;;;;;;;5.53;2.88;;;;;;;;;;6215701;23;20082;-94
2022/10/03 08:47:42;;;;;;;5.28;2.60;;;;;;;;;;6216548;23;20021;-93
2022/10/03 08:50:29;;;;;;;3.28;2.83;;;;;;;;;;6216398;23;20070;-93
2022/10/03 08:53:11;;;;;;;4.03;2.33;;;;;;;;;;6216477;23;20075;-94
2022/10/03 08:55:51;;;;;;;4.45;2.28;;;;;;;;;;6211434;23;20128;-93
2022/10/03 08:58:26;;;;;;;4.43;2.80;;;;;;;;;;6216577;23;20020;-93
2022/10/03 09:01:07;;;;;;;5.25;2.70;;;;;;;;;;6215925;23;20020;-94
2022/10/03 09:03:58;;;;;;;5.57;3.42;;;;;;;;;;6215828;23;20078;-94
2022/10/03 09:06:43;;;;;;;4.38;2.95;;;;;;;;;;6216132;23;20025;-93
2022/10/03 09:09:19;;;;;;;12.05;4.25;;;;;;;;;;6216226;23;20024;-93
2022/10/03 09:11:53;;;;;;;7.53;4.05;;;;;;;;;;6216277;23;20021;-92
2022/10/03 09:14:40;;;;;;;7.03;3.25;;;;;;;;;;6215842;23;20032;-93
2022/10/03 09:17:19;;;;;;;6.72;3.15;;;;;;;;;;6216346;23;20067;-93
2022/10/03 09:20:01;;;;;;;6.43;3.78;;;;;;;;;;6216355;23;20071;-93
2022/10/03 09:22:41;;;;;;;8.40;3.25;;;;;;;;;;6211295;23;20021;-93
2022/10/03 09:25:28;;;;;;;2.95;2.75;;;;;;;;;;6216007;23;20473;-93
2022/10/03 09:28:09;;;;;;;3.45;3.20;;;;;;;;;;6215656;23;20025;-92
2022/10/03 09:30:47;;;;;;;4.78;4.45;;;;;;;;;;6215661;23;20378;-93
2022/10/03 09:33:31;;;;;;;3.67;2.65;;;;;;;;;;6215661;23;20075;-92
2022/10/03 09:36:03;;;;;;;3.65;3.35;;;;;;;;;;6154137;23;20017;-91
2022/10/03 09:38:48;;;;;;;6.25;2.97;;;;;;;;;;6216080;23;20062;-94
2022/10/03 09:41:44;;;;;;;2.92;2.72;;;;;;;;;;6215795;23;20024;-90
2022/10/03 09:44:24;;;;;;;6.55;1.85;;;;;;;;;;6094120;23;20577;-91
2022/10/03 09:49:53;;;;;;;4.88;2.97;;;;;;;;;;6094684;23;20033;-91
2022/10/03 09:52:26;;;;;;;4.47;3.42;;;;;;;;;;6094533;23;20022;-94
2022/10/03 09:55:04;;;;;;;7.07;2.63;;;;;;;;;;6091675;23;20524;-92
2022/10/03 09:57:45;;;;;;;5.45;2.90;;;;;;;;;;6094302;23;20093;-92
2022/10/03 10:00:19;;;;;;;3.22;2.88;;;;;;;;;;6094173;23;20022;-92
2022/10/03 10:03:02;;;;;;;4.63;4.20;;;;;;;;;;6094238;23;20066;-92
2022/10/03 10:05:49;;;;;;;7.85;4.38;;;;;;;;;;6093793;23;20026;-92
2022/10/03 10:08:30;;;;;;;5.82;2.90;;;;;;;;;;6094142;23;20030;-92
2022/10/03 10:11:12;;;;;;;3.38;2.90;;;;;;;;;;6094007;23;20026;-92
2022/10/03 10:13:56;;;;;;;4.30;2.70;;;;;;;;;;6091606;23;20152;-92
2022/10/03 10:16:35;;;;;;;6.63;2.60;;;;;;;;;;6093406;23;20030;-93
2022/10/03 10:19:13;;;;;;;3.22;2.97;;;;;;;;;;6187972;23;20082;-92
2022/10/03 10:21:47;;;;;;;4.43;3.83;;;;;;;;;;6215181;23;20492;-92
2022/10/03 10:24:31;;;;;;;5.55;2.85;;;;;;;;;;6215546;23;20024;-92
2022/10/03 10:27:16;;;;;;;8.98;3.42;;;;;;;;;;6215537;23;20024;-91
2022/10/03 10:29:56;;;;;;;5.40;2.88;;;;;;;;;;6215245;23;20067;-91
2022/10/03 10:32:41;;;;;;;3.83;3.17;;;;;;;;;;6215318;23;20075;-91
2022/10/03 10:35:24;;;;;;;6.10;2.50;;;;;;;;;;6215288;23;20517;-92
2022/10/03 10:38:08;;;;;;;5.93;3.30;;;;;;;;;;6215850;23;20541;-91
2022/10/03 10:40:55;;;;;;;7.07;2.58;;;;;;;;;;6218210;23;20536;-92
2022/10/03 10:43:52;;;;;;;5.70;3.47;;;;;;;;;;6214310;23;20083;-93
2022/10/03 10:46:36;;;;;;;5.63;2.20;;;;;;;;;;6094539;23;20154;-92
2022/10/03 10:49:20;;;;;;;5.88;2.30;;;;;;;;;;6094097;23;20101;-91
2022/10/03 10:52:05;;;;;;;3.15;2.90;;;;;;;;;;6094402;23;20022;-92
2022/10/03 10:54:47;;;;;;;6.28;2.88;;;;;;;;;;6094019;23;20065;-91
2022/10/03 10:57:39;;;;;;;6.22;3.42;;;;;;;;;;6094228;23;20050;-92
2022/10/03 11:00:26;;;;;;;4.80;3.05;;;;;;;;;;6071617;23;20077;-92
2022/10/03 11:03:11;;;;;;;7.25;3.75;;;;;;;;;;6099858;23;20082;-91
2022/10/03 11:05:52;;;;;;;3.75;3.13;;;;;;;;;;6100712;23;20022;-91
2022/10/03 11:08:44;;;;;;;8.23;3.45;;;;;;;;;;6094388;23;20062;-92
2022/10/03 11:11:30;;;;;;;5.18;4.72;;;;;;;;;;6094242;23;20102;-91
2022/10/03 11:14:15;;;;;;;2.90;2.28;;;;;;;;;;6093864;23;20030;-91
2022/10/03 11:16:56;;;;;;;3.63;2.20;;;;;;;;;;6094258;23;20077;-92
2022/10/03 11:19:41;;;;;;;1.83;1.73;;;;;;;;;;6101751;23;20022;-92
2022/10/03 11:22:26;;;;;;;3.08;2.88;;;;;;;;;;6217098;23;20096;-92
2022/10/03 11:25:26;;;;;;;1.65;1.33;;;;;;;;;;6216721;23;20024;-93
2022/10/03 11:28:11;;;;;;;2.75;1.55;;;;;;;;;;6216947;23;20103;-92
2022/10/03 11:30:53;;;;;;;2.08;1.90;;;;;;;;;;6216903;23;20025;-92
2022/10/03 11:33:36;;;;;;;1.90;1.42;;;;;;;;;;6217449;23;20021;-93
2022/10/03 11:36:16;;;;;;;2.00;1.90;;;;;;;;;;6215522;23;20067;-92
2022/10/03 11:38:50;;;;;;;1.75;1.48;;;;;;;;;;6213980;23;20028;-95
2022/10/03 11:41:21;;;;;;;2.58;2.38;;;;;;;;;;6216417;23;20071;-94
2022/10/03 11:44:08;;;;;;;1.50;1.40;;;;;;;;;;6215774;23;20532;-93
2022/10/03 11:46:45;;;;;;;2.33;2.00;;;;;;;;;;6216531;23;20044;-92
2022/10/03 11:49:21;;;;;;;4.53;4.32;;;;;;;;;;6216111;23;20336;-93
2022/10/03 11:51:53;;;;;;;1.95;1.85;;;;;;;;;;6216347;23;20021;-94
2022/10/03 11:54:24;;;;;;;1.65;1.55;;;;;;;;;;6216150;23;20021;-93
2022/10/03 11:56:53;;;;;;;2.88;2.67;;;;;;;;;;6216715;23;20020;-91
2022/10/03 11:59:31;;;;;;;1.60;1.50;;;;;;;;;;6215811;23;20025;-93
2022/10/03 12:02:05;;;;;;;2.53;1.75;;;;;;;;;;6216110;23;20029;-90
2022/10/03 12:04:39;;;;;;;2.80;2.60;;;;;;;;;;6215458;23;20120;-93
2022/10/03 12:09:58;;;;;;;4.35;2.80;;;;;;;;;;6215794;23;20036;-92
2022/10/03 12:12:29;;;;;;;2.25;2.13;;;;;;;;;;6216073;23;20028;-92
2022/10/03 12:15:02;;;;;;;2.70;2.22;;;;;;;;;;6216035;23;20024;-93
2022/10/03 12:17:30;;;;;;;1.40;1.13;;;;;;;;;;6215813;23;20029;-92
2022/10/03 12:20:01;;;;;;;1.33;1.23;;;;;;;;;;6216590;23;20074;-91
2022/10/03 12:22:34;;;;;;;5.07;3.00;;;;;;;;;;6218889;23;20021;-92
2022/10/03 12:25:03;;;;;;;2.20;2.00;;;;;;;;;;6219608;23;20028;-93
2022/10/03 12:27:33;;;;;;;2.50;2.17;;;;;;;;;;6216559;23;20028;-90
2022/10/03 12:30:03;;;;;;;3.28;3.08;;;;;;;;;;6217509;23;20110;-92
2022/10/03 12:32:35;;;;;;;2.70;2.45;;;;;;;;;;6218374;23;20726;-91
2022/10/03 12:35:07;;;;;;;2.85;2.65;;;;;;;;;;6219948;23;20052;-91
2022/10/03 12:37:48;;;;;;;3.35;2.85;;;;;;;;;;6220382;23;20025;-93
2022/10/03 12:40:17;;;;;;;4.30;3.88;;;;;;;;;;6217938;23;20106;-91
2022/10/03 12:42:48;;;;;;;3.42;3.13;;;;;;;;;;6216837;23;20021;-92
2022/10/03 12:45:21;;;;;;;5.22;1.80;;;;;;;;;;6216796;23;20382;-91
2022/10/03 12:47:55;;;;;;;2.47;2.05;;;;;;;;;;6215547;23;20074;-92
2022/10/03 12:50:28;;;;;;;3.15;2.90;;;;;;;;;;6217605;23;20091;-92
2022/10/03 12:53:04;;;;;;;1.85;1.70;;;;;;;;;;6217826;23;20025;-91
2022/10/03 12:55:33;;;;;;;3.30;3.08;;;;;;;;;;6217524;23;20040;-91
2022/10/03 12:58:07;;;;;;;6.40;2.65;;;;;;;;;;6217394;23;20024;-92
2022/10/03 13:00:42;;;;;;;2.33;2.13;;;;;;;;;;6216124;23;20029;-91
2022/10/03 13:03:18;;;;;;;4.25;1.88;;;;;;;;;;6216615;23;20095;-93
2022/10/03 13:06:02;;;;;;;3.10;2.85;;;;;;;;;;6216066;23;20020;-93
2022/10/03 13:08:38;;;;;;;3.67;2.53;;;;;;;;;;6195540;23;20079;-93
2022/10/03 13:11:10;;;;;;;3.85;2.88;;;;;;;;;;6215633;23;20043;-92
2022/10/03 13:13:43;;;;;;;3.03;2.60;;;;;;;;;;6215800;23;20087;-91
2022/10/03 13:16:21;;;;;;;2.83;2.55;;;;;;;;;;6214029;23;20462;-89
2022/10/03 13:18:53;;;;;;;3.33;2.88;;;;;;;;;;6215076;23;20347;-90
2022/10/03 13:21:25;;;;;;;2.45;2.00;;;;;;;;;;6215222;23;20063;-92
2022/10/03 13:23:53;;;;;;;3.72;3.42;;;;;;;;;;6215879;23;20067;-91
2022/10/03 13:26:22;;;;;;;5.05;3.10;;;;;;;;;;6214546;23;20078;-91
2022/10/03 13:29:12;;;;;;;2.50;2.25;;;;;;;;;;6215191;23;20738;-92
2022/10/03 13:31:46;;;;;;;3.42;2.65;;;;;;;;;;6214887;23;20104;-94
2022/10/03 13:34:17;;;;;;;3.13;2.83;;;;;;;;;;6215133;23;20044;-93
2022/10/03 13:36:44;;;;;;;3.50;3.20;;;;;;;;;;6214411;23;20477;-93
2022/10/03 13:39:13;;;;;;;3.55;2.72;;;;;;;;;;6215804;23;20020;-93
2022/10/03 13:41:45;;;;;;;4.68;2.97;;;;;;;;;;6214416;23;20024;-93
2022/10/03 13:44:16;;;;;;;2.95;2.70;;;;;;;;;;6214722;23;20032;-94
2022/10/03 13:46:52;;;;;;;1.92;1.80;;;;;;;;;;6216698;23;20036;-94
2022/10/03 13:49:23;;;;;;;3.95;3.65;;;;;;;;;;6215223;23;20031;-93
2022/10/03 13:51:52;;;;;;;2.75;2.50;;;;;;;;;;6215224;23;20024;-92
2022/10/03 13:54:22;;;;;;;2.35;1.95;;;;;;;;;;6215625;23;20043;-92
2022/10/03 13:56:52;;;;;;;2.47;2.28;;;;;;;;;;6214740;23;20024;-93
2022/10/03 13:59:38;;;;;;;4.30;4.00;;;;;;;;;;6214804;23;20515;-93
2022/10/03 14:02:23;;;;;;;3.58;3.28;;;;;;;;;;6215477;23;20028;-93
2022/10/03 14:05:00;;;;;;;2.80;2.35;;;;;;;;;;6215120;23;20078;-93
2022/10/03 14:07:32;;;;;;;4.68;3.53;;;;;;;;;;6215345;23;20744;-93
2022/10/03 14:10:12;;;;;;;3.00;2.50;;;;;;;;;;6215467;23;20059;-93
2022/10/03 14:12:43;;;;;;;3.58;3.28;;;;;;;;;;6215251;23;20016;-92
2022/10/03 14:15:19;;;;;;;2.28;2.08;;;;;;;;;;6215148;23;20020;-91
2022/10/03 14:17:50;;;;;;;3.10;2.28;;;;;;;;;;6215386;23;20086;-92
2022/10/03 14:20:22;;;;;;;2.50;2.30;;;;;;;;;;6215359;23;20021;-92
2022/10/03 14:22:58;;;;;;;6.50;6.00;;;;;;;;;;6214688;23;20327;-93
2022/10/03 14:25:26;;;;;;;4.15;3.13;;;;;;;;;;6215088;23;20078;-91
2022/10/03 14:27:54;;;;;;;2.55;2.28;;;;;;;;;;6214326;23;20024;-91
2022/10/03 14:30:21;;;;;;;5.45;2.22;;;;;;;;;;6215022;23;20020;-92
2022/10/03 14:32:59;;;;;;;3.95;2.95;;;;;;;;;;6215131;23;20020;-90
2022/10/03 14:35:36;;;;;;;3.10;2.90;;;;;;;;;;6214010;23;20484;-91
2022/10/03 14:38:07;;;;;;;3.85;3.20;;;;;;;;;;6213683;23;20027;-91
2022/10/03 14:40:39;;;;;;;5.13;3.20;;;;;;;;;;6213753;23;20031;-91
2022/10/03 14:43:13;;;;;;;4.47;3.22;;;;;;;;;;6214853;23;20451;-91
2022/10/03 14:45:43;;;;;;;4.65;4.25;;;;;;;;;;6184631;23;20043;-91
2022/10/03 14:48:16;;;;;;;3.33;3.03;;;;;;;;;;6184728;23;20025;-92
2022/10/03 14:50:42;;;;;;;3.35;2.88;;;;;;;;;;6184983;23;20024;-90
2022/10/03 14:53:15;;;;;;;5.15;2.92;;;;;;;;;;6184605;23;20053;-90
2022/10/03 14:55:45;;;;;;;3.47;3.17;;;;;;;;;;6184399;23;20020;-91
2022/10/03 14:58:16;;;;;;;3.38;3.00;;;;;;;;;;6190223;23;20037;-91
2022/10/03 15:00:44;;;;;;;2.67;1.92;;;;;;;;;;6190812;23;20021;-91
2022/10/03 15:03:23;;;;;;;3.63;3.40;;;;;;;;;;6185351;23;20021;-91
2022/10/03 15:06:17;;;;;;;3.25;2.95;;;;;;;;;;6184439;23;20083;-91
2022/10/03 15:08:45;;;;;;;2.78;2.47;;;;;;;;;;6184026;23;20100;-91
2022/10/03 15:11:14;;;;;;;3.20;2.90;;;;;;;;;;6184176;23;20071;-91
2022/10/03 15:13:42;;;;;;;6.15;2.22;;;;;;;;;;6184719;23;20021;-92
2022/10/03 15:16:10;;;;;;;4.40;2.53;;;;;;;;;;6184128;23;20028;-92
2022/10/03 15:18:38;;;;;;;3.38;3.17;;;;;;;;;;6184056;23;20083;-92
2022/10/03 15:21:05;;;;;;;6.93;2.35;;;;;;;;;;6183885;23;20025;-90
2022/10/03 15:23:33;;;;;;;5.75;3.40;;;;;;;;;;6184261;23;20463;-92
2022/10/03 15:26:00;;;;;;;3.67;2.83;;;;;;;;;;6184091;23;20029;-93
2022/10/03 15:28:29;;;;;;;3.58;1.70;;;;;;;;;;6184354;23;20025;-92
2022/10/03 15:30:56;;;;;;;2.67;2.47;;;;;;;;;;6184145;23;20467;-94
2022/10/03 15:33:28;;;;;;;3.35;3.10;;;;;;;;;;6184298;23;20021;-92
2022/10/03 15:36:01;;;;;;;7.18;3.65;;;;;;;;;;6180765;23;20108;-88
2022/10/03 15:38:32;;;;;;;3.50;3.17;;;;;;;;;;6184259;23;20021;-90
2022/10/03 15:41:07;;;;;;;3.40;2.47;;;;;;;;;;6183346;23;20575;-90
2022/10/03 15:43:37;;;;;;;3.17;2.90;;;;;;;;;;6188291;23;20025;-91
2022/10/03 15:46:06;;;;;;;7.88;3.42;;;;;;;;;;6214254;23;20355;-92
2022/10/03 15:48:33;;;;;;;4.50;3.15;;;;;;;;;;6214783;23;20032;-91
2022/10/03 15:51:01;;;;;;;3.35;3.10;;;;;;;;;;6214200;23;20079;-91
2022/10/03 15:53:30;;;;;;;4.40;3.55;;;;;;;;;;6214146;23;20516;-92
2022/10/03 15:56:09;;;;;;;7.57;4.28;;;;;;;;;;6212638;23;20024;-91
2022/10/03 15:58:37;;;;;;;3.78;3.45;;;;;;;;;;6214224;23;20160;-91
2022/10/03 16:01:06;;;;;;;4.72;3.20;;;;;;;;;;6214835;23;20107;-92
2022/10/03 16:03:36;;;;;;;4.32;3.90;;;;;;;;;;6214680;23;20476;-92